Aviation Digital Data Service (ADDS)

Output produced by METARs form (2022 UTC 02 August 2015)
found at http://aviationweather.gov/adds/metars/
 
KEWR 021905Z 0219/0324 VRB06KT P6SM BKN090 
     FM022000 15010KT P6SM SCT090 SCT250 
     FM030000 17007KT P6SM SCT250 
     FM030300 22006KT P6SM SCT250 
     FM031500 22012G20KT P6SM SCT070 
     FM032000 19012G20KT P6SM SCT070